sensor_id;sensor_type;location;lat;lon;timestamp;P1;durP1;ratioP1;P2;durP2;ratioP2
68234;SDS011;55052;52.056;5.296;2023-04-02T00:07:59;15.52;;;10.30;;
68234;SDS011;55052;52.056;5.296;2023-04-02T00:13:39;15.43;;;10.75;;
68234;SDS011;55052;52.056;5.296;2023-04-02T00:15:59;19.60;;;11.27;;
68234;SDS011;55052;52.056;5.296;2023-04-02T00:18:28;23.02;;;11.10;;
68234;SDS011;55052;52.056;5.296;2023-04-02T00:21:05;18.67;;;10.53;;
68234;SDS011;55052;52.056;5.296;2023-04-02T00:23:35;15.55;;;10.25;;
68234;SDS011;55052;52.056;5.296;2023-04-02T00:26:19;18.08;;;10.50;;
68234;SDS011;55052;52.056;5.296;2023-04-02T00:28:48;18.73;;;10.40;;
68234;SDS011;55052;52.056;5.296;2023-04-02T00:31:17;17.17;;;10.55;;
68234;SDS011;55052;52.056;5.296;2023-04-02T00:33:45;16.10;;;10.75;;
68234;SDS011;55052;52.056;5.296;2023-04-02T00:36:13;19.25;;;10.35;;
68234;SDS011;55052;52.056;5.296;2023-04-02T00:38:40;18.73;;;11.55;;
68234;SDS011;55052;52.056;5.296;2023-04-02T00:41:13;19.40;;;11.10;;
68234;SDS011;55052;52.056;5.296;2023-04-02T00:43:43;14.98;;;10.75;;
68234;SDS011;55052;52.056;5.296;2023-04-02T00:46:54;22.02;;;10.98;;
68234;SDS011;55052;52.056;5.296;2023-04-02T00:52:09;17.25;;;10.48;;
68234;SDS011;55052;52.056;5.296;2023-04-02T00:54:49;18.08;;;10.95;;
68234;SDS011;55052;52.056;5.296;2023-04-02T00:57:21;17.33;;;10.50;;
68234;SDS011;55052;52.056;5.296;2023-04-02T00:59:58;17.30;;;11.25;;
68234;SDS011;55052;52.056;5.296;2023-04-02T01:02:34;19.52;;;10.70;;
68234;SDS011;55052;52.056;5.296;2023-04-02T01:17:03;16.83;;;10.98;;
68234;SDS011;55052;52.056;5.296;2023-04-02T01:20:04;17.33;;;10.68;;
68234;SDS011;55052;52.056;5.296;2023-04-02T01:25:30;18.60;;;11.13;;
68234;SDS011;55052;52.056;5.296;2023-04-02T01:28:13;18.15;;;11.02;;
68234;SDS011;55052;52.056;5.296;2023-04-02T01:30:50;16.85;;;10.73;;
68234;SDS011;55052;52.056;5.296;2023-04-02T01:33:22;16.90;;;10.35;;
68234;SDS011;55052;52.056;5.296;2023-04-02T01:35:53;16.02;;;10.52;;
68234;SDS011;55052;52.056;5.296;2023-04-02T01:39:08;15.88;;;10.50;;
68234;SDS011;55052;52.056;5.296;2023-04-02T01:42:01;18.90;;;10.65;;
68234;SDS011;55052;52.056;5.296;2023-04-02T01:44:34;15.43;;;10.45;;
68234;SDS011;55052;52.056;5.296;2023-04-02T01:47:09;15.27;;;9.57;;
68234;SDS011;55052;52.056;5.296;2023-04-02T01:49:38;15.85;;;10.65;;
68234;SDS011;55052;52.056;5.296;2023-04-02T01:52:06;14.85;;;10.18;;
68234;SDS011;55052;52.056;5.296;2023-04-02T01:54:34;16.50;;;10.18;;
68234;SDS011;55052;52.056;5.296;2023-04-02T01:57:03;15.85;;;9.13;;
68234;SDS011;55052;52.056;5.296;2023-04-02T01:59:31;15.10;;;10.00;;
68234;SDS011;55052;52.056;5.296;2023-04-02T02:04:27;16.67;;;10.02;;
68234;SDS011;55052;52.056;5.296;2023-04-02T02:06:55;19.08;;;9.43;;
68234;SDS011;55052;52.056;5.296;2023-04-02T02:09:24;15.57;;;10.23;;
68234;SDS011;55052;52.056;5.296;2023-04-02T02:14:23;15.90;;;9.93;;
68234;SDS011;55052;52.056;5.296;2023-04-02T02:16:54;14.90;;;9.10;;
68234;SDS011;55052;52.056;5.296;2023-04-02T02:19:44;16.00;;;9.85;;
68234;SDS011;55052;52.056;5.296;2023-04-02T02:24:39;14.05;;;9.07;;
68234;SDS011;55052;52.056;5.296;2023-04-02T02:29:54;18.50;;;9.90;;
68234;SDS011;55052;52.056;5.296;2023-04-02T02:32:34;16.98;;;9.95;;
68234;SDS011;55052;52.056;5.296;2023-04-02T02:37:47;15.88;;;9.77;;
68234;SDS011;55052;52.056;5.296;2023-04-02T02:40:33;14.60;;;9.25;;
68234;SDS011;55052;52.056;5.296;2023-04-02T02:43:06;14.77;;;9.40;;
68234;SDS011;55052;52.056;5.296;2023-04-02T02:45:36;13.88;;;8.93;;
68234;SDS011;55052;52.056;5.296;2023-04-02T02:48:09;14.43;;;8.95;;
68234;SDS011;55052;52.056;5.296;2023-04-02T02:50:37;20.42;;;9.70;;
68234;SDS011;55052;52.056;5.296;2023-04-02T02:53:13;15.02;;;8.63;;
68234;SDS011;55052;52.056;5.296;2023-04-02T02:55:49;19.52;;;9.30;;
68234;SDS011;55052;52.056;5.296;2023-04-02T02:58:22;20.05;;;8.57;;
68234;SDS011;55052;52.056;5.296;2023-04-02T03:00:52;14.80;;;8.63;;
68234;SDS011;55052;52.056;5.296;2023-04-02T03:03:20;13.93;;;8.70;;
68234;SDS011;55052;52.056;5.296;2023-04-02T03:05:56;17.92;;;9.52;;
68234;SDS011;55052;52.056;5.296;2023-04-02T03:08:47;14.70;;;8.82;;
68234;SDS011;55052;52.056;5.296;2023-04-02T03:11:35;16.17;;;8.75;;
68234;SDS011;55052;52.056;5.296;2023-04-02T03:14:14;14.73;;;8.13;;
68234;SDS011;55052;52.056;5.296;2023-04-02T03:17:07;12.50;;;8.25;;
68234;SDS011;55052;52.056;5.296;2023-04-02T03:19:50;17.80;;;8.82;;
68234;SDS011;55052;52.056;5.296;2023-04-02T03:22:38;14.43;;;8.60;;
68234;SDS011;55052;52.056;5.296;2023-04-02T03:28:04;11.93;;;8.15;;
68234;SDS011;55052;52.056;5.296;2023-04-02T03:30:37;12.13;;;7.95;;
68234;SDS011;55052;52.056;5.296;2023-04-02T03:33:14;15.85;;;8.80;;
68234;SDS011;55052;52.056;5.296;2023-04-02T03:35:53;13.02;;;8.10;;
68234;SDS011;55052;52.056;5.296;2023-04-02T03:38:31;15.35;;;8.52;;
68234;SDS011;55052;52.056;5.296;2023-04-02T03:43:57;14.38;;;9.10;;
68234;SDS011;55052;52.056;5.296;2023-04-02T03:48:58;17.73;;;9.32;;
68234;SDS011;55052;52.056;5.296;2023-04-02T03:51:29;14.18;;;8.63;;
68234;SDS011;55052;52.056;5.296;2023-04-02T03:56:34;15.52;;;9.20;;
68234;SDS011;55052;52.056;5.296;2023-04-02T03:59:10;14.15;;;8.98;;
68234;SDS011;55052;52.056;5.296;2023-04-02T04:01:42;14.25;;;8.57;;
68234;SDS011;55052;52.056;5.296;2023-04-02T04:04:17;12.60;;;8.98;;
68234;SDS011;55052;52.056;5.296;2023-04-02T04:06:45;13.32;;;8.70;;
68234;SDS011;55052;52.056;5.296;2023-04-02T04:11:49;14.70;;;9.15;;
68234;SDS011;55052;52.056;5.296;2023-04-02T04:14:29;12.65;;;8.70;;
68234;SDS011;55052;52.056;5.296;2023-04-02T04:20:09;13.02;;;8.18;;
68234;SDS011;55052;52.056;5.296;2023-04-02T04:22:48;13.48;;;8.68;;
68234;SDS011;55052;52.056;5.296;2023-04-02T04:25:25;12.85;;;8.63;;
68234;SDS011;55052;52.056;5.296;2023-04-02T04:28:16;12.88;;;8.52;;
68234;SDS011;55052;52.056;5.296;2023-04-02T04:30:59;15.55;;;8.85;;
68234;SDS011;55052;52.056;5.296;2023-04-02T04:33:33;14.88;;;8.30;;
68234;SDS011;55052;52.056;5.296;2023-04-02T04:36:16;13.63;;;8.73;;
68234;SDS011;55052;52.056;5.296;2023-04-02T04:38:46;13.65;;;8.05;;
68234;SDS011;55052;52.056;5.296;2023-04-02T04:41:22;12.10;;;8.50;;
68234;SDS011;55052;52.056;5.296;2023-04-02T04:44:16;10.30;;;7.88;;
68234;SDS011;55052;52.056;5.296;2023-04-02T04:46:51;13.25;;;8.85;;
68234;SDS011;55052;52.056;5.296;2023-04-02T04:52:15;13.48;;;8.23;;
68234;SDS011;55052;52.056;5.296;2023-04-02T04:54:47;12.60;;;7.57;;
68234;SDS011;55052;52.056;5.296;2023-04-02T04:57:30;16.55;;;8.52;;
68234;SDS011;55052;52.056;5.296;2023-04-02T05:00:09;14.13;;;8.05;;
68234;SDS011;55052;52.056;5.296;2023-04-02T05:02:59;13.38;;;7.78;;
68234;SDS011;55052;52.056;5.296;2023-04-02T05:05:32;12.60;;;7.55;;
68234;SDS011;55052;52.056;5.296;2023-04-02T05:08:05;12.23;;;7.35;;
68234;SDS011;55052;52.056;5.296;2023-04-02T05:10:44;10.70;;;6.95;;
68234;SDS011;55052;52.056;5.296;2023-04-02T05:16:20;12.20;;;7.45;;
68234;SDS011;55052;52.056;5.296;2023-04-02T05:19:02;14.45;;;6.93;;
68234;SDS011;55052;52.056;5.296;2023-04-02T05:27:04;10.93;;;6.53;;
68234;SDS011;55052;52.056;5.296;2023-04-02T05:29:41;10.35;;;6.10;;
68234;SDS011;55052;52.056;5.296;2023-04-02T05:32:14;14.10;;;5.95;;
68234;SDS011;55052;52.056;5.296;2023-04-02T05:34:45;8.52;;;5.80;;
68234;SDS011;55052;52.056;5.296;2023-04-02T05:37:20;11.55;;;5.85;;
68234;SDS011;55052;52.056;5.296;2023-04-02T05:39:52;9.40;;;5.25;;
68234;SDS011;55052;52.056;5.296;2023-04-02T05:42:26;9.35;;;5.50;;
68234;SDS011;55052;52.056;5.296;2023-04-02T05:44:57;9.80;;;4.60;;
68234;SDS011;55052;52.056;5.296;2023-04-02T05:47:31;8.73;;;4.85;;
68234;SDS011;55052;52.056;5.296;2023-04-02T05:52:33;8.10;;;4.32;;
68234;SDS011;55052;52.056;5.296;2023-04-02T05:57:48;7.10;;;4.43;;
68234;SDS011;55052;52.056;5.296;2023-04-02T06:03:37;9.43;;;3.92;;
68234;SDS011;55052;52.056;5.296;2023-04-02T06:06:14;7.38;;;3.72;;
68234;SDS011;55052;52.056;5.296;2023-04-02T06:08:55;8.50;;;3.95;;
68234;SDS011;55052;52.056;5.296;2023-04-02T06:11:31;7.68;;;3.83;;
68234;SDS011;55052;52.056;5.296;2023-04-02T06:14:09;7.65;;;3.75;;
68234;SDS011;55052;52.056;5.296;2023-04-02T06:16:37;6.35;;;3.95;;
68234;SDS011;55052;52.056;5.296;2023-04-02T06:19:06;5.88;;;3.75;;
68234;SDS011;55052;52.056;5.296;2023-04-02T06:21:46;7.22;;;3.40;;
68234;SDS011;55052;52.056;5.296;2023-04-02T06:24:16;11.63;;;4.07;;
68234;SDS011;55052;52.056;5.296;2023-04-02T06:26:51;6.88;;;3.50;;
68234;SDS011;55052;52.056;5.296;2023-04-02T06:29:25;10.13;;;3.60;;
68234;SDS011;55052;52.056;5.296;2023-04-02T06:32:03;8.50;;;3.50;;
68234;SDS011;55052;52.056;5.296;2023-04-02T06:34:32;6.80;;;3.60;;
68234;SDS011;55052;52.056;5.296;2023-04-02T06:37:11;6.70;;;3.40;;
68234;SDS011;55052;52.056;5.296;2023-04-02T06:40:01;8.60;;;3.70;;
68234;SDS011;55052;52.056;5.296;2023-04-02T06:42:30;8.10;;;4.25;;
68234;SDS011;55052;52.056;5.296;2023-04-02T06:45:01;6.90;;;4.10;;
68234;SDS011;55052;52.056;5.296;2023-04-02T06:47:35;8.75;;;4.25;;
68234;SDS011;55052;52.056;5.296;2023-04-02T06:50:14;7.18;;;3.95;;
68234;SDS011;55052;52.056;5.296;2023-04-02T06:52:52;7.25;;;4.22;;
68234;SDS011;55052;52.056;5.296;2023-04-02T06:55:32;8.07;;;4.47;;
68234;SDS011;55052;52.056;5.296;2023-04-02T06:58:13;9.38;;;4.60;;
68234;SDS011;55052;52.056;5.296;2023-04-02T07:00:42;7.60;;;4.53;;
68234;SDS011;55052;52.056;5.296;2023-04-02T07:05:54;9.82;;;4.95;;
68234;SDS011;55052;52.056;5.296;2023-04-02T07:08:21;7.13;;;4.63;;
68234;SDS011;55052;52.056;5.296;2023-04-02T07:10:49;8.90;;;4.70;;
68234;SDS011;55052;52.056;5.296;2023-04-02T07:13:17;9.20;;;4.95;;
68234;SDS011;55052;52.056;5.296;2023-04-02T07:15:47;7.30;;;4.13;;
68234;SDS011;55052;52.056;5.296;2023-04-02T07:20:54;8.25;;;4.97;;
68234;SDS011;55052;52.056;5.296;2023-04-02T07:23:21;10.57;;;5.05;;
68234;SDS011;55052;52.056;5.296;2023-04-02T07:25:49;9.98;;;5.18;;
68234;SDS011;55052;52.056;5.296;2023-04-02T07:28:20;9.20;;;5.28;;
68234;SDS011;55052;52.056;5.296;2023-04-02T07:30:48;9.32;;;5.28;;
68234;SDS011;55052;52.056;5.296;2023-04-02T07:33:17;9.18;;;5.72;;
68234;SDS011;55052;52.056;5.296;2023-04-02T07:35:46;9.27;;;5.47;;
68234;SDS011;55052;52.056;5.296;2023-04-02T07:38:13;10.18;;;6.10;;
68234;SDS011;55052;52.056;5.296;2023-04-02T07:40:40;13.40;;;5.70;;
68234;SDS011;55052;52.056;5.296;2023-04-02T07:43:07;9.88;;;5.38;;
68234;SDS011;55052;52.056;5.296;2023-04-02T07:45:34;10.38;;;5.75;;
68234;SDS011;55052;52.056;5.296;2023-04-02T07:48:05;9.73;;;5.95;;
68234;SDS011;55052;52.056;5.296;2023-04-02T07:50:39;9.95;;;6.47;;
68234;SDS011;55052;52.056;5.296;2023-04-02T07:53:06;11.40;;;5.85;;
68234;SDS011;55052;52.056;5.296;2023-04-02T07:55:34;8.43;;;5.25;;
68234;SDS011;55052;52.056;5.296;2023-04-02T07:58:01;7.93;;;5.07;;
68234;SDS011;55052;52.056;5.296;2023-04-02T08:00:29;11.15;;;5.60;;
68234;SDS011;55052;52.056;5.296;2023-04-02T08:02:56;9.40;;;6.25;;
68234;SDS011;55052;52.056;5.296;2023-04-02T08:05:23;10.77;;;5.68;;
68234;SDS011;55052;52.056;5.296;2023-04-02T08:07:53;9.82;;;5.93;;
68234;SDS011;55052;52.056;5.296;2023-04-02T08:10:22;8.38;;;5.50;;
68234;SDS011;55052;52.056;5.296;2023-04-02T08:12:49;7.70;;;5.07;;
68234;SDS011;55052;52.056;5.296;2023-04-02T08:15:17;9.18;;;5.55;;
68234;SDS011;55052;52.056;5.296;2023-04-02T08:17:44;10.13;;;5.72;;
68234;SDS011;55052;52.056;5.296;2023-04-02T08:20:15;10.18;;;6.72;;
68234;SDS011;55052;52.056;5.296;2023-04-02T08:22:44;11.80;;;6.35;;
68234;SDS011;55052;52.056;5.296;2023-04-02T08:25:11;7.72;;;5.82;;
68234;SDS011;55052;52.056;5.296;2023-04-02T08:27:38;9.50;;;6.10;;
68234;SDS011;55052;52.056;5.296;2023-04-02T08:30:06;11.20;;;6.00;;
68234;SDS011;55052;52.056;5.296;2023-04-02T08:32:34;7.88;;;5.78;;
68234;SDS011;55052;52.056;5.296;2023-04-02T08:35:01;8.15;;;6.25;;
68234;SDS011;55052;52.056;5.296;2023-04-02T08:37:28;10.35;;;6.00;;
68234;SDS011;55052;52.056;5.296;2023-04-02T08:39:54;10.00;;;6.15;;
68234;SDS011;55052;52.056;5.296;2023-04-02T08:42:28;11.02;;;6.47;;
68234;SDS011;55052;52.056;5.296;2023-04-02T08:48:23;10.02;;;6.97;;
68234;SDS011;55052;52.056;5.296;2023-04-02T08:50:50;10.55;;;6.50;;
68234;SDS011;55052;52.056;5.296;2023-04-02T08:53:21;8.68;;;6.25;;
68234;SDS011;55052;52.056;5.296;2023-04-02T08:58:57;9.23;;;5.60;;
68234;SDS011;55052;52.056;5.296;2023-04-02T09:04:00;8.93;;;5.30;;
68234;SDS011;55052;52.056;5.296;2023-04-02T09:06:28;11.15;;;5.65;;
68234;SDS011;55052;52.056;5.296;2023-04-02T09:08:55;10.88;;;5.38;;
68234;SDS011;55052;52.056;5.296;2023-04-02T09:11:30;8.02;;;5.18;;
68234;SDS011;55052;52.056;5.296;2023-04-02T09:14:11;7.63;;;4.95;;
68234;SDS011;55052;52.056;5.296;2023-04-02T09:16:50;9.50;;;5.05;;
68234;SDS011;55052;52.056;5.296;2023-04-02T09:22:06;8.00;;;5.00;;
68234;SDS011;55052;52.056;5.296;2023-04-02T09:24:42;6.80;;;4.78;;
68234;SDS011;55052;52.056;5.296;2023-04-02T09:27:42;7.93;;;4.80;;
68234;SDS011;55052;52.056;5.296;2023-04-02T09:32:53;7.80;;;4.38;;
68234;SDS011;55052;52.056;5.296;2023-04-02T09:35:28;6.80;;;5.00;;
68234;SDS011;55052;52.056;5.296;2023-04-02T09:40:47;8.50;;;4.97;;
68234;SDS011;55052;52.056;5.296;2023-04-02T09:43:18;6.93;;;4.30;;
68234;SDS011;55052;52.056;5.296;2023-04-02T09:45:58;8.38;;;4.10;;
68234;SDS011;55052;52.056;5.296;2023-04-02T09:49:03;9.25;;;4.28;;
68234;SDS011;55052;52.056;5.296;2023-04-02T09:51:31;6.10;;;3.85;;
68234;SDS011;55052;52.056;5.296;2023-04-02T09:56:30;6.67;;;3.80;;
68234;SDS011;55052;52.056;5.296;2023-04-02T09:59:05;7.28;;;4.00;;
68234;SDS011;55052;52.056;5.296;2023-04-02T10:01:35;6.38;;;3.63;;
68234;SDS011;55052;52.056;5.296;2023-04-02T10:04:38;6.50;;;3.70;;
68234;SDS011;55052;52.056;5.296;2023-04-02T10:07:30;8.00;;;3.60;;
68234;SDS011;55052;52.056;5.296;2023-04-02T10:13:03;9.88;;;3.60;;
68234;SDS011;55052;52.056;5.296;2023-04-02T10:18:26;6.95;;;3.42;;
68234;SDS011;55052;52.056;5.296;2023-04-02T10:21:01;7.68;;;3.40;;
68234;SDS011;55052;52.056;5.296;2023-04-02T10:23:30;9.27;;;3.80;;
68234;SDS011;55052;52.056;5.296;2023-04-02T10:31:37;6.70;;;3.15;;
68234;SDS011;55052;52.056;5.296;2023-04-02T10:34:14;7.50;;;3.88;;
68234;SDS011;55052;52.056;5.296;2023-04-02T10:40:05;6.55;;;3.00;;
68234;SDS011;55052;52.056;5.296;2023-04-02T10:45:44;4.28;;;2.60;;
68234;SDS011;55052;52.056;5.296;2023-04-02T10:48:40;12.32;;;3.25;;
68234;SDS011;55052;52.056;5.296;2023-04-02T10:51:30;8.18;;;2.85;;
68234;SDS011;55052;52.056;5.296;2023-04-02T10:57:02;5.15;;;3.00;;
68234;SDS011;55052;52.056;5.296;2023-04-02T10:59:36;7.25;;;3.00;;
68234;SDS011;55052;52.056;5.296;2023-04-02T11:02:23;6.43;;;3.05;;
68234;SDS011;55052;52.056;5.296;2023-04-02T11:05:04;5.68;;;3.00;;
68234;SDS011;55052;52.056;5.296;2023-04-02T11:07:55;8.55;;;2.88;;
68234;SDS011;55052;52.056;5.296;2023-04-02T11:10:26;5.82;;;3.10;;
68234;SDS011;55052;52.056;5.296;2023-04-02T11:12:58;6.70;;;3.10;;
68234;SDS011;55052;52.056;5.296;2023-04-02T11:15:29;9.50;;;3.38;;
68234;SDS011;55052;52.056;5.296;2023-04-02T11:17:56;6.82;;;3.45;;
68234;SDS011;55052;52.056;5.296;2023-04-02T11:20:47;5.78;;;3.40;;
68234;SDS011;55052;52.056;5.296;2023-04-02T11:23:24;5.53;;;3.38;;
68234;SDS011;55052;52.056;5.296;2023-04-02T11:29:01;4.53;;;3.22;;
68234;SDS011;55052;52.056;5.296;2023-04-02T11:31:42;8.63;;;3.60;;
68234;SDS011;55052;52.056;5.296;2023-04-02T11:34:11;6.57;;;3.42;;
68234;SDS011;55052;52.056;5.296;2023-04-02T11:37:02;6.07;;;3.30;;
68234;SDS011;55052;52.056;5.296;2023-04-02T11:39:49;8.63;;;3.50;;
68234;SDS011;55052;52.056;5.296;2023-04-02T11:42:23;6.32;;;3.15;;
68234;SDS011;55052;52.056;5.296;2023-04-02T11:44:53;7.95;;;3.20;;
68234;SDS011;55052;52.056;5.296;2023-04-02T11:47:22;7.22;;;3.05;;
68234;SDS011;55052;52.056;5.296;2023-04-02T11:52:21;5.65;;;3.30;;
68234;SDS011;55052;52.056;5.296;2023-04-02T12:06:03;5.90;;;2.95;;
68234;SDS011;55052;52.056;5.296;2023-04-02T12:11:30;4.97;;;3.03;;
68234;SDS011;55052;52.056;5.296;2023-04-02T12:13:59;3.38;;;2.50;;
68234;SDS011;55052;52.056;5.296;2023-04-02T12:16:31;6.78;;;3.10;;
68234;SDS011;55052;52.056;5.296;2023-04-02T12:18:59;4.85;;;3.08;;
68234;SDS011;55052;52.056;5.296;2023-04-02T12:21:28;5.95;;;3.10;;
68234;SDS011;55052;52.056;5.296;2023-04-02T12:23:56;5.47;;;3.03;;
68234;SDS011;55052;52.056;5.296;2023-04-02T12:31:47;5.55;;;3.17;;
68234;SDS011;55052;52.056;5.296;2023-04-02T12:34:15;6.38;;;3.22;;
68234;SDS011;55052;52.056;5.296;2023-04-02T12:36:56;8.85;;;3.30;;
68234;SDS011;55052;52.056;5.296;2023-04-02T12:39:25;6.65;;;3.40;;
68234;SDS011;55052;52.056;5.296;2023-04-02T12:41:54;5.70;;;2.90;;
68234;SDS011;55052;52.056;5.296;2023-04-02T12:44:22;7.47;;;3.28;;
68234;SDS011;55052;52.056;5.296;2023-04-02T12:46:52;6.43;;;3.33;;
68234;SDS011;55052;52.056;5.296;2023-04-02T12:49:38;5.55;;;3.20;;
68234;SDS011;55052;52.056;5.296;2023-04-02T12:52:09;5.93;;;3.35;;
68234;SDS011;55052;52.056;5.296;2023-04-02T12:57:22;7.25;;;2.90;;
68234;SDS011;55052;52.056;5.296;2023-04-02T12:59:59;6.85;;;3.05;;
68234;SDS011;55052;52.056;5.296;2023-04-02T13:02:50;6.00;;;3.30;;
68234;SDS011;55052;52.056;5.296;2023-04-02T13:05:33;4.88;;;3.05;;
68234;SDS011;55052;52.056;5.296;2023-04-02T13:11:13;5.93;;;3.10;;
68234;SDS011;55052;52.056;5.296;2023-04-02T13:13:41;4.55;;;2.80;;
68234;SDS011;55052;52.056;5.296;2023-04-02T13:18:43;5.78;;;2.95;;
68234;SDS011;55052;52.056;5.296;2023-04-02T13:23:44;8.13;;;3.20;;
68234;SDS011;55052;52.056;5.296;2023-04-02T13:26:24;7.35;;;3.40;;
68234;SDS011;55052;52.056;5.296;2023-04-02T13:29:03;5.93;;;2.88;;
68234;SDS011;55052;52.056;5.296;2023-04-02T13:31:43;6.65;;;2.97;;
68234;SDS011;55052;52.056;5.296;2023-04-02T13:34:10;5.43;;;3.05;;
68234;SDS011;55052;52.056;5.296;2023-04-02T13:36:37;6.07;;;2.72;;
68234;SDS011;55052;52.056;5.296;2023-04-02T13:39:04;7.53;;;3.17;;
68234;SDS011;55052;52.056;5.296;2023-04-02T13:41:41;9.70;;;2.67;;
68234;SDS011;55052;52.056;5.296;2023-04-02T13:44:26;6.68;;;2.85;;
68234;SDS011;55052;52.056;5.296;2023-04-02T13:46:55;8.18;;;2.70;;
68234;SDS011;55052;52.056;5.296;2023-04-02T13:49:22;5.03;;;2.40;;
68234;SDS011;55052;52.056;5.296;2023-04-02T13:51:51;5.15;;;2.42;;
68234;SDS011;55052;52.056;5.296;2023-04-02T13:54:21;4.78;;;2.92;;
68234;SDS011;55052;52.056;5.296;2023-04-02T13:56:59;5.15;;;2.63;;
68234;SDS011;55052;52.056;5.296;2023-04-02T13:59:27;7.07;;;3.05;;
68234;SDS011;55052;52.056;5.296;2023-04-02T14:01:55;7.50;;;3.00;;
68234;SDS011;55052;52.056;5.296;2023-04-02T14:04:28;5.68;;;2.67;;
68234;SDS011;55052;52.056;5.296;2023-04-02T14:12:33;8.60;;;2.78;;
68234;SDS011;55052;52.056;5.296;2023-04-02T14:32:02;4.05;;;1.80;;
68234;SDS011;55052;52.056;5.296;2023-04-02T14:34:54;6.07;;;2.30;;
68234;SDS011;55052;52.056;5.296;2023-04-02T14:37:51;4.78;;;2.05;;
68234;SDS011;55052;52.056;5.296;2023-04-02T14:40:42;4.15;;;2.00;;
68234;SDS011;55052;52.056;5.296;2023-04-02T14:43:15;5.43;;;1.95;;
68234;SDS011;55052;52.056;5.296;2023-04-02T14:51:12;6.13;;;2.10;;
68234;SDS011;55052;52.056;5.296;2023-04-02T14:54:27;4.28;;;1.90;;
68234;SDS011;55052;52.056;5.296;2023-04-02T14:56:51;6.37;;;2.10;;
68234;SDS011;55052;52.056;5.296;2023-04-02T14:59:24;4.47;;;1.90;;
68234;SDS011;55052;52.056;5.296;2023-04-02T15:02:11;4.45;;;2.35;;
68234;SDS011;55052;52.056;5.296;2023-04-02T15:04:51;5.68;;;2.20;;
68234;SDS011;55052;52.056;5.296;2023-04-02T15:07:48;4.00;;;2.08;;
68234;SDS011;55052;52.056;5.296;2023-04-02T15:16:41;6.30;;;2.42;;
68234;SDS011;55052;52.056;5.296;2023-04-02T15:19:11;5.47;;;2.28;;
68234;SDS011;55052;52.056;5.296;2023-04-02T15:24:50;4.45;;;2.40;;
68234;SDS011;55052;52.056;5.296;2023-04-02T15:30:12;4.95;;;2.22;;
68234;SDS011;55052;52.056;5.296;2023-04-02T15:32:43;6.07;;;2.20;;
68234;SDS011;55052;52.056;5.296;2023-04-02T15:54:20;5.03;;;2.42;;
68234;SDS011;55052;52.056;5.296;2023-04-02T16:05:38;5.93;;;2.00;;
68234;SDS011;55052;52.056;5.296;2023-04-02T16:10:43;3.95;;;1.92;;
68234;SDS011;55052;52.056;5.296;2023-04-02T16:13:16;6.03;;;2.03;;
68234;SDS011;55052;52.056;5.296;2023-04-02T16:15:46;6.18;;;2.00;;
68234;SDS011;55052;52.056;5.296;2023-04-02T16:18:46;5.40;;;2.20;;
68234;SDS011;55052;52.056;5.296;2023-04-02T16:21:23;6.80;;;2.53;;
68234;SDS011;55052;52.056;5.296;2023-04-02T16:24:01;6.05;;;2.17;;
68234;SDS011;55052;52.056;5.296;2023-04-02T16:26:30;7.32;;;2.17;;
68234;SDS011;55052;52.056;5.296;2023-04-02T16:40:15;4.07;;;1.70;;
68234;SDS011;55052;52.056;5.296;2023-04-02T16:45:52;5.70;;;1.95;;
68234;SDS011;55052;52.056;5.296;2023-04-02T16:48:34;4.72;;;2.05;;
68234;SDS011;55052;52.056;5.296;2023-04-02T16:54:18;6.03;;;2.00;;
68234;SDS011;55052;52.056;5.296;2023-04-02T16:57:03;6.72;;;2.30;;
68234;SDS011;55052;52.056;5.296;2023-04-02T17:00:00;4.13;;;2.25;;
68234;SDS011;55052;52.056;5.296;2023-04-02T17:02:58;5.88;;;2.53;;
68234;SDS011;55052;52.056;5.296;2023-04-02T17:08:24;4.03;;;1.92;;
68234;SDS011;55052;52.056;5.296;2023-04-02T17:10:56;5.13;;;1.90;;
68234;SDS011;55052;52.056;5.296;2023-04-02T17:13:30;6.03;;;2.17;;
68234;SDS011;55052;52.056;5.296;2023-04-02T17:16:16;5.47;;;2.20;;
68234;SDS011;55052;52.056;5.296;2023-04-02T17:18:47;4.15;;;2.10;;
68234;SDS011;55052;52.056;5.296;2023-04-02T17:21:19;4.95;;;2.50;;
68234;SDS011;55052;52.056;5.296;2023-04-02T17:23:53;7.00;;;2.50;;
68234;SDS011;55052;52.056;5.296;2023-04-02T17:26:26;6.18;;;2.25;;
68234;SDS011;55052;52.056;5.296;2023-04-02T17:28:56;3.53;;;1.92;;
68234;SDS011;55052;52.056;5.296;2023-04-02T17:31:28;5.50;;;2.00;;
68234;SDS011;55052;52.056;5.296;2023-04-02T17:34:00;5.55;;;2.33;;
68234;SDS011;55052;52.056;5.296;2023-04-02T17:37:14;4.93;;;1.98;;
68234;SDS011;55052;52.056;5.296;2023-04-02T17:42:32;4.10;;;1.80;;
68234;SDS011;55052;52.056;5.296;2023-04-02T17:56:31;4.00;;;1.90;;
68234;SDS011;55052;52.056;5.296;2023-04-02T18:02:14;5.78;;;2.22;;
68234;SDS011;55052;52.056;5.296;2023-04-02T18:05:09;4.43;;;2.30;;
68234;SDS011;55052;52.056;5.296;2023-04-02T18:10:34;4.97;;;2.40;;
68234;SDS011;55052;52.056;5.296;2023-04-02T18:13:28;5.82;;;2.25;;
68234;SDS011;55052;52.056;5.296;2023-04-02T18:24:14;5.70;;;2.50;;
68234;SDS011;55052;52.056;5.296;2023-04-02T18:27:08;5.90;;;2.33;;
68234;SDS011;55052;52.056;5.296;2023-04-02T18:30:02;6.40;;;2.60;;
68234;SDS011;55052;52.056;5.296;2023-04-02T18:35:37;5.50;;;2.35;;
68234;SDS011;55052;52.056;5.296;2023-04-02T18:38:17;7.10;;;2.55;;
68234;SDS011;55052;52.056;5.296;2023-04-02T18:41:06;4.70;;;2.42;;
68234;SDS011;55052;52.056;5.296;2023-04-02T18:52:04;5.38;;;2.58;;
68234;SDS011;55052;52.056;5.296;2023-04-02T18:54:58;5.07;;;2.45;;
68234;SDS011;55052;52.056;5.296;2023-04-02T18:57:31;10.38;;;4.45;;
68234;SDS011;55052;52.056;5.296;2023-04-02T19:08:47;5.32;;;2.50;;
68234;SDS011;55052;52.056;5.296;2023-04-02T19:11:10;5.25;;;2.50;;
68234;SDS011;55052;52.056;5.296;2023-04-02T19:13:42;4.97;;;2.42;;
68234;SDS011;55052;52.056;5.296;2023-04-02T19:19:26;5.25;;;2.35;;
68234;SDS011;55052;52.056;5.296;2023-04-02T19:22:12;6.32;;;2.63;;
68234;SDS011;55052;52.056;5.296;2023-04-02T19:27:36;6.13;;;2.67;;
68234;SDS011;55052;52.056;5.296;2023-04-02T19:33:18;9.57;;;3.00;;
68234;SDS011;55052;52.056;5.296;2023-04-02T19:36:02;4.38;;;2.40;;
68234;SDS011;55052;52.056;5.296;2023-04-02T19:41:38;5.40;;;2.90;;
68234;SDS011;55052;52.056;5.296;2023-04-02T19:44:13;4.25;;;2.38;;
68234;SDS011;55052;52.056;5.296;2023-04-02T19:46:41;4.75;;;2.35;;
68234;SDS011;55052;52.056;5.296;2023-04-02T19:49:13;5.20;;;2.50;;
68234;SDS011;55052;52.056;5.296;2023-04-02T19:51:48;7.25;;;2.65;;
68234;SDS011;55052;52.056;5.296;2023-04-02T19:54:16;5.40;;;2.60;;
68234;SDS011;55052;52.056;5.296;2023-04-02T19:56:43;7.80;;;2.92;;
68234;SDS011;55052;52.056;5.296;2023-04-02T19:59:10;6.18;;;2.65;;
68234;SDS011;55052;52.056;5.296;2023-04-02T20:01:43;14.43;;;4.43;;
68234;SDS011;55052;52.056;5.296;2023-04-02T20:04:11;9.82;;;5.88;;
68234;SDS011;55052;52.056;5.296;2023-04-02T20:06:38;9.57;;;5.45;;
68234;SDS011;55052;52.056;5.296;2023-04-02T20:09:05;9.65;;;6.32;;
68234;SDS011;55052;52.056;5.296;2023-04-02T20:11:34;6.88;;;3.30;;
68234;SDS011;55052;52.056;5.296;2023-04-02T20:14:02;6.47;;;2.95;;
68234;SDS011;55052;52.056;5.296;2023-04-02T20:16:29;7.38;;;2.75;;
68234;SDS011;55052;52.056;5.296;2023-04-02T20:18:58;4.97;;;2.55;;
68234;SDS011;55052;52.056;5.296;2023-04-02T20:21:24;9.50;;;3.55;;
68234;SDS011;55052;52.056;5.296;2023-04-02T20:23:53;7.70;;;2.90;;
68234;SDS011;55052;52.056;5.296;2023-04-02T20:26:20;6.80;;;2.80;;
68234;SDS011;55052;52.056;5.296;2023-04-02T20:28:47;5.25;;;2.80;;
68234;SDS011;55052;52.056;5.296;2023-04-02T20:31:15;5.80;;;2.70;;
68234;SDS011;55052;52.056;5.296;2023-04-02T20:33:43;6.50;;;2.70;;
68234;SDS011;55052;52.056;5.296;2023-04-02T20:36:12;5.78;;;2.40;;